createdAt,value
2022-09-28T00:00:49.500Z,29.60
2022-09-28T00:01:51.738Z,25.50
2022-09-28T00:02:57.021Z,27.80
2022-09-28T00:03:59.174Z,27.10
2022-09-28T00:05:01.513Z,26.00
2022-09-28T00:06:09.624Z,28.50
2022-09-28T00:07:11.500Z,26.60
2022-09-28T00:08:13.349Z,24.56
2022-09-28T00:09:16.709Z,24.30
2022-09-28T00:10:20.218Z,27.70
2022-09-28T00:11:24.982Z,24.82
2022-09-28T00:12:28.055Z,27.80
2022-09-28T00:13:30.003Z,22.80
2022-09-28T00:14:31.862Z,25.11
2022-09-28T00:15:33.732Z,26.11
2022-09-28T00:16:39.105Z,26.10
2022-09-28T00:17:41.162Z,24.70
2022-09-28T00:18:43.849Z,20.30
2022-09-28T00:19:45.928Z,24.18
2022-09-28T00:20:47.812Z,19.80
2022-09-28T00:21:51.099Z,26.60
2022-09-28T00:22:52.910Z,21.80
2022-09-28T00:23:58.138Z,17.67
2022-09-28T00:24:59.862Z,22.70
2022-09-28T00:26:04.986Z,22.78
2022-09-28T00:27:07.006Z,21.30
2022-09-28T00:28:09.116Z,21.70
2022-09-28T00:29:14.607Z,24.89
2022-09-28T00:30:16.952Z,27.70
2022-09-28T00:31:19.021Z,21.50
2022-09-28T00:32:21.346Z,19.90
2022-09-28T00:33:23.708Z,21.11
2022-09-28T00:34:26.713Z,21.10
2022-09-28T00:35:28.485Z,21.82
2022-09-28T00:36:31.910Z,23.44
2022-09-28T00:37:33.859Z,20.60
2022-09-28T00:38:35.670Z,21.33
2022-09-28T00:39:38.726Z,20.00
2022-09-28T00:40:41.404Z,22.20
2022-09-28T00:41:45.073Z,26.10
2022-09-28T00:42:46.907Z,24.90
2022-09-28T00:43:48.815Z,19.90
2022-09-28T00:44:55.518Z,22.30
2022-09-28T00:46:04.163Z,24.10
2022-09-28T00:47:21.991Z,19.70
2022-09-28T00:48:28.526Z,22.60
2022-09-28T00:49:43.318Z,20.70
2022-09-28T00:50:45.382Z,22.90
2022-09-28T00:51:48.379Z,23.80
2022-09-28T00:53:12.450Z,23.90
2022-09-28T00:54:16.094Z,21.70
2022-09-28T00:55:21.604Z,22.00
2022-09-28T00:56:27.388Z,21.30
2022-09-28T00:57:31.154Z,21.40
2022-09-28T00:58:36.706Z,20.30
2022-09-28T00:59:40.683Z,17.50
2022-09-28T01:00:42.798Z,19.50
2022-09-28T01:01:45.396Z,24.20
2022-09-28T01:02:47.861Z,21.60
2022-09-28T01:03:49.783Z,18.50
2022-09-28T01:04:53.723Z,22.45
2022-09-28T01:05:58.384Z,23.27
2022-09-28T01:07:00.652Z,25.30
2022-09-28T01:08:03.953Z,21.40
2022-09-28T01:09:09.597Z,25.80
2022-09-28T01:10:12.542Z,18.90
2022-09-28T01:11:14.328Z,25.80
2022-09-28T01:12:17.632Z,22.90
2022-09-28T01:13:23.847Z,21.20
2022-09-28T01:14:25.910Z,25.50
2022-09-28T01:15:29.100Z,19.40
2022-09-28T01:16:47.065Z,19.60
2022-09-28T01:18:27.990Z,22.90
2022-09-28T01:19:49.090Z,20.20
2022-09-28T01:20:57.753Z,23.50
2022-09-28T01:22:26.509Z,15.90
2022-09-28T01:23:44.465Z,20.30
2022-09-28T01:24:48.882Z,20.20
2022-09-28T01:25:57.561Z,20.40
2022-09-28T01:27:15.224Z,17.30
2022-09-28T01:28:20.555Z,23.30
2022-09-28T01:29:38.232Z,18.10
2022-09-28T01:30:55.936Z,17.30
2022-09-28T01:32:01.545Z,18.80
2022-09-28T01:33:07.290Z,15.60
2022-09-28T01:34:18.803Z,17.40
2022-09-28T01:35:34.154Z,20.10
2022-09-28T01:36:39.843Z,19.60
2022-09-28T01:37:51.275Z,19.50
2022-09-28T01:38:56.808Z,19.20
2022-09-28T01:40:01.663Z,19.20
2022-09-28T01:41:06.731Z,15.30
2022-09-28T01:42:12.282Z,17.10
2022-09-28T01:43:21.089Z,15.00
2022-09-28T01:44:26.779Z,20.30
2022-09-28T01:45:32.799Z,19.20
2022-09-28T01:46:40.879Z,19.10
2022-09-28T01:47:46.089Z,19.90
2022-09-28T01:50:11.271Z,20.70
2022-09-28T01:51:27.260Z,18.40
2022-09-28T01:52:32.752Z,18.50
2022-09-28T01:53:40.950Z,21.80
2022-09-28T01:56:01.976Z,20.90
2022-09-28T01:57:14.376Z,20.80
2022-09-28T01:58:23.671Z,22.00
2022-09-28T01:59:32.211Z,20.90
2022-09-28T02:00:37.516Z,18.50
2022-09-28T02:01:55.628Z,20.20
2022-09-28T02:03:19.799Z,16.90
2022-09-28T02:04:30.616Z,22.00
2022-09-28T02:05:34.721Z,23.60
2022-09-28T02:06:40.386Z,22.10
2022-09-28T02:07:58.028Z,19.80
2022-09-28T02:09:03.696Z,14.70
2022-09-28T02:10:14.245Z,18.50
2022-09-28T02:11:18.693Z,19.20
2022-09-28T02:12:24.620Z,21.30
2022-09-28T02:13:32.948Z,20.80
2022-09-28T02:14:39.282Z,18.70
2022-09-28T02:16:00.290Z,20.40
2022-09-28T02:17:03.373Z,18.90
2022-09-28T02:18:06.648Z,19.70
2022-09-28T02:19:18.312Z,21.27
2022-09-28T02:20:23.092Z,21.00
2022-09-28T02:21:47.333Z,23.80
2022-09-28T02:22:52.313Z,19.20
2022-09-28T02:24:04.337Z,19.00
2022-09-28T02:25:42.106Z,20.80
2022-09-28T02:26:48.101Z,15.40
2022-09-28T02:27:59.424Z,22.70
2022-09-28T02:29:02.011Z,19.00
2022-09-28T02:30:05.704Z,20.00
2022-09-28T02:31:07.716Z,20.00
2022-09-28T02:32:10.606Z,22.70
2022-09-28T02:33:16.208Z,22.82
2022-09-28T02:34:18.313Z,20.30
2022-09-28T02:35:21.553Z,21.50
2022-09-28T02:36:27.703Z,20.50
2022-09-28T02:37:31.049Z,22.20
2022-09-28T02:38:34.387Z,21.60
2022-09-28T02:39:37.277Z,22.70
2022-09-28T02:40:40.214Z,21.60
2022-09-28T02:41:49.582Z,20.60
2022-09-28T02:43:13.467Z,20.70
2022-09-28T02:44:28.145Z,18.20
2022-09-28T02:45:43.076Z,20.70
2022-09-28T02:46:51.817Z,24.40
2022-09-28T02:48:08.119Z,22.40
2022-09-28T02:49:23.445Z,21.60
2022-09-28T02:50:47.535Z,16.90
2022-09-28T02:51:59.294Z,20.10
2022-09-28T02:53:07.908Z,17.40
2022-09-28T02:54:40.398Z,22.50
2022-09-28T02:56:07.211Z,19.10
2022-09-28T02:57:25.030Z,21.90
2022-09-28T02:58:42.906Z,19.10
2022-09-28T03:00:03.974Z,20.90
2022-09-28T03:01:12.637Z,21.70
2022-09-28T03:02:20.948Z,15.90
2022-09-28T03:03:35.645Z,21.20
2022-09-28T03:05:05.472Z,23.30
2022-09-28T03:06:26.668Z,20.70
2022-09-28T03:07:46.616Z,25.10
2022-09-28T03:09:00.865Z,20.40
2022-09-28T03:10:29.782Z,17.90
2022-09-28T03:11:35.288Z,17.60
2022-09-28T03:12:38.923Z,20.50
2022-09-28T03:13:41.988Z,19.90
2022-09-28T03:14:45.328Z,18.40
2022-09-28T03:15:48.966Z,21.64
2022-09-28T03:16:52.548Z,22.70
2022-09-28T03:17:56.235Z,21.20
2022-09-28T03:18:58.389Z,19.70
2022-09-28T03:20:00.978Z,21.00
2022-09-28T03:21:04.511Z,19.20
2022-09-28T03:22:07.422Z,25.80
2022-09-28T03:23:24.361Z,23.50
2022-09-28T03:24:14.996Z,25.00
2022-09-28T03:25:17.701Z,21.70
2022-09-28T03:26:20.748Z,19.70
2022-09-28T03:27:22.501Z,20.22
2022-09-28T03:28:24.314Z,21.44
2022-09-28T03:29:26.119Z,25.67
2022-09-28T03:30:30.002Z,21.60
2022-09-28T03:31:33.029Z,23.30
2022-09-28T03:32:36.131Z,21.80
2022-09-28T03:33:39.194Z,20.70
2022-09-28T03:34:40.805Z,20.78
2022-09-28T03:35:47.915Z,21.89
2022-09-28T03:36:51.254Z,22.50
2022-09-28T03:37:56.835Z,21.80
2022-09-28T03:38:59.638Z,20.00
2022-09-28T03:40:03.189Z,23.90
2022-09-28T03:41:05.705Z,22.40
2022-09-28T03:42:09.571Z,22.20
2022-09-28T03:43:13.457Z,24.60
2022-09-28T03:44:16.055Z,21.00
2022-09-28T03:45:18.081Z,24.70
2022-09-28T03:46:20.575Z,23.50
2022-09-28T03:47:24.319Z,22.80
2022-09-28T03:48:32.343Z,24.33
2022-09-28T03:49:32.630Z,27.30
2022-09-28T03:50:34.577Z,17.78
2022-09-28T03:51:36.655Z,25.78
2022-09-28T03:52:38.450Z,27.50
2022-09-28T03:53:40.825Z,23.22
2022-09-28T03:54:46.938Z,19.80
2022-09-28T03:55:48.298Z,27.10
2022-09-28T03:56:50.238Z,24.90
2022-09-28T03:57:55.145Z,25.40
2022-09-28T03:58:57.072Z,24.70
2022-09-28T03:59:58.992Z,18.50
2022-09-28T04:01:05.973Z,28.30
2022-09-28T04:02:08.137Z,25.20
2022-09-28T04:03:10.307Z,23.70
2022-09-28T04:04:12.828Z,23.20
2022-09-28T04:05:14.835Z,15.60
2022-09-28T04:06:17.437Z,23.73
2022-09-28T04:07:19.263Z,21.56
2022-09-28T04:08:21.560Z,21.70
2022-09-28T04:09:24.156Z,24.00
2022-09-28T04:10:26.118Z,18.11
2022-09-28T04:11:42.866Z,27.50
2022-09-28T04:12:33.723Z,22.70
2022-09-28T04:13:35.537Z,27.56
2022-09-28T04:14:39.251Z,24.10
2022-09-28T04:15:41.800Z,22.40
2022-09-28T04:16:43.859Z,26.30
2022-09-28T04:17:47.687Z,24.80
2022-09-28T04:18:52.046Z,21.60
2022-09-28T04:20:12.485Z,27.60
2022-09-28T04:21:22.572Z,21.80
2022-09-28T04:22:26.311Z,23.60
2022-09-28T04:23:28.696Z,15.44
2022-09-28T04:24:30.726Z,23.80
2022-09-28T04:25:32.501Z,26.22
2022-09-28T04:26:34.475Z,19.80
2022-09-28T04:27:36.331Z,25.67
2022-09-28T04:28:38.039Z,11.33
2022-09-28T04:29:40.445Z,25.67
2022-09-28T04:30:44.967Z,25.00
2022-09-28T04:31:52.732Z,28.60
2022-09-28T04:32:56.413Z,27.60
2022-09-28T04:33:58.397Z,31.33
2022-09-28T04:35:00.118Z,28.67
2022-09-28T04:36:01.880Z,29.44
2022-09-28T04:37:03.614Z,30.11
2022-09-28T04:38:05.494Z,27.44
2022-09-28T04:39:07.655Z,29.10
2022-09-28T04:40:10.514Z,32.50
2022-09-28T04:41:13.358Z,26.50
2022-09-28T04:42:15.325Z,29.40
2022-09-28T04:43:17.320Z,31.40
2022-09-28T04:44:19.272Z,30.89
2022-09-28T04:45:23.436Z,30.20
2022-09-28T04:46:27.158Z,29.00
2022-09-28T04:47:30.982Z,35.30
2022-09-28T04:48:51.069Z,28.00
2022-09-28T04:50:00.762Z,34.70
2022-09-28T04:51:07.637Z,33.30
2022-09-28T04:52:11.010Z,35.40
2022-09-28T04:53:13.498Z,35.50
2022-09-28T04:54:15.406Z,32.89
2022-09-28T04:55:17.182Z,38.11
2022-09-28T04:56:19.137Z,34.20
2022-09-28T04:57:20.860Z,32.11
2022-09-28T04:58:23.811Z,34.67
2022-09-28T04:59:26.230Z,31.70
2022-09-28T05:00:30.005Z,33.64
2022-09-28T05:01:36.534Z,31.50
2022-09-28T05:02:56.936Z,37.10
2022-09-28T05:04:03.671Z,28.40
2022-09-28T05:05:10.225Z,32.10
2022-09-28T05:06:30.750Z,36.20
2022-09-28T05:07:40.525Z,34.20
2022-09-28T05:08:42.647Z,36.22
2022-09-28T05:09:45.507Z,25.10
2022-09-28T05:10:47.500Z,32.30
2022-09-28T05:11:52.133Z,25.45
2022-09-28T05:12:55.922Z,31.90
2022-09-28T05:13:58.877Z,28.89
2022-09-28T05:15:01.137Z,29.20
2022-09-28T05:16:05.533Z,30.50
2022-09-28T05:17:09.956Z,31.50
2022-09-28T05:18:16.700Z,28.30
2022-09-28T05:19:23.196Z,35.10
2022-09-28T05:20:26.462Z,26.30
2022-09-28T05:21:28.463Z,25.30
2022-09-28T05:22:31.194Z,26.44
2022-09-28T05:23:34.604Z,28.00
2022-09-28T05:24:37.040Z,27.60
2022-09-28T05:25:39.446Z,27.40
2022-09-28T05:26:43.303Z,25.40
2022-09-28T05:27:45.743Z,27.40
2022-09-28T05:28:50.841Z,29.80
2022-09-28T05:29:56.373Z,32.30
2022-09-28T05:31:03.400Z,27.00
2022-09-28T05:32:07.582Z,28.00
2022-09-28T05:33:11.325Z,32.20
2022-09-28T05:34:15.175Z,30.90
2022-09-28T05:35:18.257Z,30.40
2022-09-28T05:36:21.877Z,29.90
2022-09-28T05:37:24.760Z,30.70
2022-09-28T05:38:27.483Z,28.89
2022-09-28T05:39:29.530Z,26.20
2022-09-28T05:40:32.094Z,33.70
2022-09-28T05:41:34.235Z,32.50
2022-09-28T05:42:36.464Z,25.90
2022-09-28T05:43:39.054Z,28.80
2022-09-28T05:44:40.945Z,32.64
2022-09-28T05:45:43.068Z,28.60
2022-09-28T05:46:45.258Z,31.30
2022-09-28T05:47:47.656Z,27.30
2022-09-28T05:48:51.536Z,31.70
2022-09-28T05:49:55.307Z,29.20
2022-09-28T05:50:57.368Z,35.60
2022-09-28T05:52:00.064Z,38.90
2022-09-28T05:53:09.685Z,43.90
2022-09-28T05:54:12.049Z,45.30
2022-09-28T05:55:16.030Z,41.60
2022-09-28T05:56:21.878Z,44.82
2022-09-28T05:57:25.306Z,45.80
2022-09-28T05:58:27.903Z,42.90
2022-09-28T05:59:30.811Z,47.30
2022-09-28T06:00:34.703Z,47.00
2022-09-28T06:01:37.554Z,47.80
2022-09-28T06:02:41.957Z,44.50
2022-09-28T06:03:45.817Z,48.80
2022-09-28T06:04:48.133Z,42.90
2022-09-28T06:05:50.973Z,39.70
2022-09-28T06:06:53.315Z,41.55
2022-09-28T06:07:57.899Z,34.91
2022-09-28T06:08:59.731Z,35.50
2022-09-28T06:10:04.941Z,36.80
2022-09-28T06:11:17.463Z,40.70
2022-09-28T06:12:19.627Z,34.60
2022-09-28T06:13:23.333Z,21.80
2022-09-28T06:14:26.206Z,35.27
2022-09-28T06:15:30.784Z,33.20
2022-09-28T06:16:37.362Z,32.70
2022-09-28T06:17:41.057Z,30.80
2022-09-28T06:19:01.196Z,30.40
2022-09-28T06:20:21.440Z,30.10
2022-09-28T06:21:25.375Z,29.80
2022-09-28T06:22:27.286Z,31.20
2022-09-28T06:23:36.933Z,28.70
2022-09-28T06:24:40.978Z,28.20
2022-09-28T06:25:43.155Z,27.36
2022-09-28T06:26:45.079Z,25.50
2022-09-28T06:29:06.115Z,24.30
2022-09-28T06:30:09.857Z,29.00
2022-09-28T06:31:11.989Z,27.27
2022-09-28T06:32:18.918Z,23.20
2022-09-28T06:33:23.771Z,25.90
2022-09-28T06:34:25.633Z,25.00
2022-09-28T06:35:30.020Z,24.50
2022-09-28T06:36:33.227Z,24.80
2022-09-28T06:37:36.039Z,25.30
2022-09-28T06:38:38.151Z,23.73
2022-09-28T06:39:40.221Z,21.00
2022-09-28T06:40:43.638Z,26.50
2022-09-28T06:41:46.495Z,18.20
2022-09-28T06:42:58.152Z,27.10
2022-09-28T06:44:01.874Z,25.30
2022-09-28T06:45:22.970Z,28.30
2022-09-28T06:46:29.368Z,27.00
2022-09-28T06:47:58.287Z,27.10
2022-09-28T06:49:02.760Z,24.90
2022-09-28T06:50:23.331Z,23.70
2022-09-28T06:52:38.039Z,27.30
2022-09-28T06:53:53.956Z,25.50
2022-09-28T06:55:14.359Z,27.20
2022-09-28T06:56:18.113Z,30.20
2022-09-28T06:57:21.067Z,29.00
2022-09-28T06:58:24.674Z,29.70
2022-09-28T06:59:26.399Z,20.40
2022-09-28T07:00:30.919Z,29.20
2022-09-28T07:01:32.846Z,23.20
2022-09-28T07:02:46.756Z,29.40
2022-09-28T07:05:17.607Z,21.40
2022-09-28T07:06:27.575Z,26.10
2022-09-28T07:07:40.679Z,28.00
2022-09-28T07:08:57.108Z,20.90
2022-09-28T07:09:55.533Z,23.90
2022-09-28T07:11:07.122Z,24.30
2022-09-28T07:12:26.033Z,28.80
2022-09-28T07:13:50.301Z,23.80
2022-09-28T07:14:47.822Z,21.60
2022-09-28T07:15:47.167Z,28.20
2022-09-28T07:17:11.917Z,25.40
2022-09-28T07:18:03.307Z,30.00
2022-09-28T07:19:03.893Z,28.90
2022-09-28T07:20:18.440Z,27.80
2022-09-28T07:21:23.611Z,24.80
2022-09-28T07:22:19.405Z,29.00
2022-09-28T07:23:20.886Z,28.70
2022-09-28T07:24:41.600Z,27.90
2022-09-28T07:26:07.893Z,25.20
2022-09-28T07:27:20.232Z,26.90
2022-09-28T07:28:40.606Z,27.80
2022-09-28T07:29:59.593Z,29.10
2022-09-28T07:31:21.592Z,30.90
2022-09-28T07:33:51.844Z,26.20
2022-09-28T07:34:59.096Z,25.60
2022-09-28T07:36:06.875Z,27.20
2022-09-28T07:37:11.683Z,27.50
2022-09-28T07:38:13.628Z,25.30
2022-09-28T07:39:16.116Z,29.50
2022-09-28T07:40:18.461Z,27.60
2022-09-28T07:41:20.691Z,25.70
2022-09-28T07:42:25.799Z,31.20
2022-09-28T07:43:27.674Z,25.70
2022-09-28T07:44:30.074Z,22.70
2022-09-28T07:45:33.258Z,28.80
2022-09-28T07:46:35.442Z,27.30
2022-09-28T07:47:39.409Z,20.20
2022-09-28T07:48:46.150Z,26.90
2022-09-28T07:50:02.186Z,26.00
2022-09-28T07:51:12.477Z,26.30
2022-09-28T07:52:17.979Z,26.20
2022-09-28T07:53:23.704Z,23.10
2022-09-28T07:54:27.678Z,20.90
2022-09-28T07:55:44.695Z,22.20
2022-09-28T07:56:48.471Z,22.40
2022-09-28T07:57:56.276Z,24.80
2022-09-28T07:59:03.134Z,23.70
2022-09-28T08:00:09.166Z,22.10
2022-09-28T08:01:19.837Z,25.00
2022-09-28T08:02:22.528Z,24.40
2022-09-28T08:03:24.560Z,21.80
2022-09-28T08:04:28.187Z,24.00
2022-09-28T08:05:30.956Z,23.90
2022-09-28T08:06:34.232Z,25.00
2022-09-28T08:07:37.388Z,24.90
2022-09-28T08:08:41.616Z,24.00
2022-09-28T08:09:45.916Z,24.50
2022-09-28T08:11:08.762Z,28.70
2022-09-28T08:12:15.480Z,25.20
2022-09-28T08:13:22.252Z,24.90
2022-09-28T08:14:31.741Z,23.40
2022-09-28T08:15:35.641Z,23.10
2022-09-28T08:16:49.563Z,24.70
2022-09-28T08:18:02.764Z,28.00
2022-09-28T08:19:05.041Z,26.80
2022-09-28T08:20:08.231Z,27.40
2022-09-28T08:21:10.581Z,26.30
2022-09-28T08:22:13.962Z,27.64
2022-09-28T08:23:16.114Z,28.80
2022-09-28T08:24:20.388Z,23.70
2022-09-28T08:25:22.781Z,21.50
2022-09-28T08:26:25.562Z,2.30
2022-09-28T08:27:27.615Z,25.20
2022-09-28T08:28:29.396Z,26.78
2022-09-28T08:29:33.227Z,24.30
2022-09-28T08:30:57.485Z,26.90
2022-09-28T08:32:17.486Z,25.30
2022-09-28T08:33:27.756Z,26.00
2022-09-28T08:34:48.052Z,27.50
2022-09-28T08:36:02.663Z,25.30
2022-09-28T08:37:23.882Z,24.50
2022-09-28T08:38:45.304Z,24.80
2022-09-28T08:40:03.556Z,25.40
2022-09-28T08:41:29.674Z,29.20
2022-09-28T08:42:38.153Z,29.90
2022-09-28T08:44:14.815Z,25.10
2022-09-28T08:45:31.273Z,25.70
2022-09-28T08:48:10.173Z,22.10
2022-09-28T08:49:30.895Z,25.50
2022-09-28T08:50:59.352Z,26.40
2022-09-28T08:52:16.721Z,23.20
2022-09-28T08:55:17.012Z,21.90
2022-09-28T08:56:35.667Z,26.20
2022-09-28T08:57:47.273Z,28.70
2022-09-28T08:58:54.334Z,25.60
2022-09-28T09:00:08.187Z,23.20
2022-09-28T09:01:14.062Z,25.80
2022-09-28T09:02:22.634Z,23.60
2022-09-28T09:03:35.199Z,25.30
2022-09-28T09:04:39.099Z,18.50
2022-09-28T09:06:30.290Z,27.10
2022-09-28T09:07:43.449Z,22.20
2022-09-28T09:09:07.402Z,25.30
2022-09-28T09:10:22.313Z,20.30
2022-09-28T09:11:48.226Z,30.30
2022-09-28T09:13:00.873Z,29.10
2022-09-28T09:14:09.618Z,25.00
2022-09-28T09:15:30.817Z,26.00
2022-09-28T09:16:38.397Z,27.60
2022-09-28T09:17:50.285Z,27.50
2022-09-28T09:19:15.451Z,22.50
2022-09-28T09:20:56.484Z,23.50
2022-09-28T09:23:26.666Z,26.10
2022-09-28T09:24:46.197Z,28.10
2022-09-28T09:25:54.590Z,28.10
2022-09-28T09:27:06.268Z,24.10
2022-09-28T09:28:19.323Z,25.50
2022-09-28T09:29:28.702Z,22.20
2022-09-28T09:31:52.544Z,26.10
2022-09-28T09:33:21.278Z,26.90
2022-09-28T09:34:38.053Z,26.40
2022-09-28T09:36:08.556Z,24.00
2022-09-28T09:37:24.788Z,26.20
2022-09-28T09:38:51.028Z,24.90
2022-09-28T09:40:37.651Z,28.50
2022-09-28T09:42:13.768Z,17.30
2022-09-28T09:43:48.066Z,28.30
2022-09-28T09:45:24.365Z,28.50
2022-09-28T09:47:57.271Z,24.20
2022-09-28T09:49:22.512Z,25.10
2022-09-28T09:50:28.162Z,25.20
2022-09-28T09:51:51.544Z,14.60
2022-09-28T09:53:06.242Z,24.80
2022-09-28T09:54:19.261Z,27.30
2022-09-28T09:55:39.561Z,25.90
2022-09-28T09:58:29.252Z,29.90
2022-09-28T09:59:50.259Z,27.60
2022-09-28T10:01:00.560Z,22.90
2022-09-28T10:02:23.567Z,25.10
2022-09-28T10:03:33.563Z,25.80
2022-09-28T10:04:41.483Z,24.60
2022-09-28T10:05:48.866Z,25.60
2022-09-28T10:06:54.523Z,29.40
2022-09-28T10:08:06.128Z,25.20
2022-09-28T10:09:14.597Z,27.80
2022-09-28T10:10:29.616Z,22.90
2022-09-28T10:11:46.844Z,27.90
2022-09-28T10:12:50.483Z,29.50
2022-09-28T10:13:53.460Z,25.50
2022-09-28T10:14:57.250Z,22.60
2022-09-28T10:16:02.251Z,23.90
2022-09-28T10:17:07.529Z,25.90
2022-09-28T10:19:34.217Z,26.40
2022-09-28T10:20:44.412Z,29.90
2022-09-28T10:21:54.637Z,24.40
2022-09-28T10:23:04.112Z,24.90
2022-09-28T10:24:09.795Z,27.00
2022-09-28T10:25:13.771Z,31.30
2022-09-28T10:26:24.671Z,31.50
2022-09-28T10:27:29.885Z,28.30
2022-09-28T10:28:44.222Z,33.80
2022-09-28T10:31:37.024Z,30.50
2022-09-28T10:32:43.776Z,30.70
2022-09-28T10:33:45.861Z,30.10
2022-09-28T10:34:50.903Z,29.22
2022-09-28T10:35:54.665Z,29.90
2022-09-28T10:37:00.950Z,33.10
2022-09-28T10:38:09.131Z,27.80
2022-09-28T10:39:29.660Z,31.10
2022-09-28T10:40:48.916Z,32.40
2022-09-28T10:41:53.868Z,34.30
2022-09-28T10:43:08.043Z,29.50
2022-09-28T10:44:15.572Z,29.90
2022-09-28T10:46:38.214Z,28.50
2022-09-28T10:47:43.828Z,31.60
2022-09-28T10:48:53.015Z,28.00
2022-09-28T10:49:58.487Z,31.40
2022-09-28T10:52:38.299Z,34.40
2022-09-28T10:53:40.995Z,25.50
2022-09-28T10:54:48.876Z,30.30
2022-09-28T10:56:01.856Z,28.20
2022-09-28T10:57:11.495Z,32.60
2022-09-28T10:58:28.478Z,34.90
2022-09-28T10:59:34.699Z,28.10
2022-09-28T11:00:43.972Z,29.20
2022-09-28T11:01:59.107Z,31.10
2022-09-28T11:03:02.452Z,32.20
2022-09-28T11:04:07.364Z,32.40
2022-09-28T11:05:13.167Z,32.30
2022-09-28T11:06:27.374Z,31.10
2022-09-28T11:07:32.230Z,32.40
2022-09-28T11:08:40.855Z,31.30
2022-09-28T11:09:51.174Z,28.00
2022-09-28T11:11:05.737Z,30.80
2022-09-28T11:12:11.316Z,31.70
2022-09-28T11:13:14.904Z,30.90
2022-09-28T11:14:25.441Z,31.20
2022-09-28T11:15:31.288Z,35.00
2022-09-28T11:16:35.393Z,33.30
2022-09-28T11:17:39.321Z,32.30
2022-09-28T11:18:42.336Z,34.60
2022-09-28T11:19:45.830Z,31.70
2022-09-28T11:20:49.054Z,31.30
2022-09-28T11:21:51.878Z,35.60
2022-09-28T11:23:01.973Z,29.70
2022-09-28T11:24:15.529Z,34.10
2022-09-28T11:25:23.860Z,31.40
2022-09-28T11:26:26.323Z,29.90
2022-09-28T11:27:28.639Z,29.50
2022-09-28T11:28:36.248Z,29.60
2022-09-28T11:29:43.612Z,32.20
2022-09-28T11:30:55.803Z,29.70
2022-09-28T11:32:15.552Z,28.30
2022-09-28T11:33:19.763Z,30.20
2022-09-28T11:34:59.067Z,25.60
2022-09-28T11:36:16.046Z,28.00
2022-09-28T11:37:39.099Z,29.80
2022-09-28T11:38:48.656Z,25.90
2022-09-28T11:40:27.935Z,30.50
2022-09-28T11:41:54.862Z,29.40
2022-09-28T11:43:16.939Z,36.70
2022-09-28T11:44:47.542Z,32.70
2022-09-28T11:46:10.081Z,28.90
2022-09-28T11:47:38.870Z,34.20
2022-09-28T11:48:44.642Z,32.00
2022-09-28T11:49:59.365Z,32.10
2022-09-28T11:51:11.454Z,33.30
2022-09-28T11:52:25.730Z,35.30
2022-09-28T11:53:49.286Z,34.60
2022-09-28T11:54:55.517Z,35.00
2022-09-28T11:56:06.558Z,34.90
2022-09-28T11:57:09.384Z,29.00
2022-09-28T11:58:24.096Z,27.90
2022-09-28T11:59:30.233Z,32.60
2022-09-28T12:00:37.230Z,31.30
2022-09-28T12:01:49.334Z,31.60
2022-09-28T12:03:00.576Z,33.10
2022-09-28T12:04:21.536Z,32.90
2022-09-28T12:05:27.264Z,29.90
2022-09-28T12:06:33.470Z,30.30
2022-09-28T12:07:38.960Z,28.00
2022-09-28T12:08:46.420Z,23.10
2022-09-28T12:10:09.084Z,25.20
2022-09-28T12:11:17.571Z,27.70
2022-09-28T12:12:49.289Z,27.70
2022-09-28T12:13:54.811Z,29.20
2022-09-28T12:15:00.387Z,29.90
2022-09-28T12:17:36.289Z,31.70
2022-09-28T12:18:45.037Z,27.80
2022-09-28T12:19:50.634Z,27.20
2022-09-28T12:21:19.302Z,30.30
2022-09-28T12:22:41.373Z,29.00
2022-09-28T12:23:46.041Z,33.00
2022-09-28T12:24:52.203Z,28.40
2022-09-28T12:26:01.825Z,27.00
2022-09-28T12:27:13.026Z,27.40
2022-09-28T12:28:37.950Z,31.10
2022-09-28T12:29:49.889Z,29.80
2022-09-28T12:30:53.933Z,29.40
2022-09-28T12:32:11.095Z,31.50
2022-09-28T12:33:15.164Z,25.90
2022-09-28T12:34:17.214Z,28.90
2022-09-28T12:35:41.988Z,26.90
2022-09-28T12:37:03.083Z,31.40
2022-09-28T12:38:31.744Z,28.50
2022-09-28T12:39:57.739Z,32.80
2022-09-28T12:41:15.137Z,33.20
2022-09-28T12:42:29.696Z,31.10
2022-09-28T12:43:51.047Z,28.50
2022-09-28T12:45:28.747Z,31.10
2022-09-28T12:47:00.702Z,31.30
2022-09-28T12:48:38.448Z,31.10
2022-09-28T12:50:37.561Z,30.00
2022-09-28T12:51:17.571Z,27.50
2022-09-28T12:52:58.081Z,28.70
2022-09-28T12:54:28.337Z,27.70
2022-09-28T12:55:53.989Z,27.70
2022-09-28T12:57:11.660Z,30.60
2022-09-28T12:58:44.748Z,33.00
2022-09-28T12:59:57.485Z,33.30
2022-09-28T13:01:35.047Z,30.00
2022-09-28T13:02:41.174Z,33.30
2022-09-28T13:03:52.957Z,31.20
2022-09-28T13:05:16.870Z,30.80
2022-09-28T13:06:37.913Z,28.70
2022-09-28T13:07:46.664Z,27.10
2022-09-28T13:09:04.721Z,27.70
2022-09-28T13:10:16.217Z,26.20
2022-09-28T13:11:53.481Z,29.60
2022-09-28T13:13:04.867Z,30.40
2022-09-28T13:14:16.504Z,31.20
2022-09-28T13:18:11.866Z,31.40
2022-09-28T13:19:20.571Z,30.00
2022-09-28T13:20:49.415Z,31.30
2022-09-28T13:23:28.965Z,26.90
2022-09-28T13:24:34.478Z,32.90
2022-09-28T13:28:00.758Z,32.20
2022-09-28T13:29:18.228Z,33.90
2022-09-28T13:30:20.814Z,33.50
2022-09-28T13:31:29.253Z,29.50
2022-09-28T13:32:33.732Z,29.90
2022-09-28T13:33:39.076Z,32.40
2022-09-28T13:34:41.448Z,26.20
2022-09-28T13:35:43.569Z,29.90
2022-09-28T13:36:49.082Z,30.50
2022-09-28T13:38:17.240Z,31.10
2022-09-28T13:39:45.074Z,26.90
2022-09-28T13:41:08.863Z,27.80
2022-09-28T13:44:15.064Z,24.30
2022-09-28T13:45:23.387Z,26.70
2022-09-28T13:46:50.402Z,29.00
2022-09-28T13:48:05.351Z,26.20
2022-09-28T13:49:11.961Z,29.10
2022-09-28T13:50:20.937Z,31.60
2022-09-28T13:51:41.393Z,30.10
2022-09-28T13:52:53.244Z,30.60
2022-09-28T13:54:04.836Z,29.00
2022-09-28T13:55:25.548Z,24.70
2022-09-28T13:56:52.382Z,28.70
2022-09-28T13:58:04.035Z,27.60
2022-09-28T13:59:16.353Z,29.70
2022-09-28T14:00:25.060Z,26.90
2022-09-28T14:01:42.829Z,24.10
2022-09-28T14:04:59.769Z,25.60
2022-09-28T14:06:23.620Z,23.20
2022-09-28T14:07:36.881Z,28.80
2022-09-28T14:09:08.838Z,22.60
2022-09-28T14:12:09.189Z,21.80
2022-09-28T14:13:11.950Z,28.30
2022-09-28T14:14:17.859Z,28.40
2022-09-28T14:15:38.793Z,22.90
2022-09-28T14:16:42.114Z,26.10
2022-09-28T14:17:47.738Z,26.00
2022-09-28T14:18:59.185Z,23.40
2022-09-28T14:20:08.690Z,25.90
2022-09-28T14:21:31.822Z,23.70
2022-09-28T14:22:56.018Z,24.90
2022-09-28T14:24:13.864Z,27.60
2022-09-28T14:25:28.196Z,22.90
2022-09-28T14:26:42.922Z,23.00
2022-09-28T14:28:07.177Z,20.80
2022-09-28T14:29:24.926Z,21.40
2022-09-28T14:30:30.833Z,17.70
2022-09-28T14:31:32.964Z,24.20
2022-09-28T14:32:36.626Z,20.50
2022-09-28T14:33:38.594Z,21.20
2022-09-28T14:34:49.449Z,23.33
2022-09-28T14:36:00.982Z,23.20
2022-09-28T14:37:07.679Z,20.40
2022-09-28T14:38:16.386Z,19.50
2022-09-28T14:39:22.243Z,19.40
2022-09-28T14:40:28.485Z,22.30
2022-09-28T14:41:34.348Z,25.00
2022-09-28T14:42:36.971Z,24.20
2022-09-28T14:43:48.394Z,17.70
2022-09-28T14:45:07.231Z,19.30
2022-09-28T14:46:13.931Z,20.80
2022-09-28T14:47:34.997Z,19.00
2022-09-28T14:49:02.771Z,16.80
2022-09-28T14:50:25.270Z,25.70
2022-09-28T14:51:31.603Z,25.00
2022-09-28T14:52:46.585Z,21.50
2022-09-28T14:53:51.579Z,22.40
2022-09-28T14:54:55.029Z,24.00
2022-09-28T14:56:01.080Z,21.60
2022-09-28T14:57:06.679Z,23.10
2022-09-28T14:58:12.346Z,23.00
2022-09-28T14:59:32.269Z,25.40
2022-09-28T15:00:35.381Z,26.70
2022-09-28T15:01:38.430Z,21.82
2022-09-28T15:02:43.952Z,24.60
2022-09-28T15:03:53.806Z,26.50
2022-09-28T15:05:08.785Z,26.20
2022-09-28T15:06:15.629Z,26.30
2022-09-28T15:07:29.957Z,22.30
2022-09-28T15:08:39.195Z,20.70
2022-09-28T15:09:41.440Z,25.60
2022-09-28T15:10:49.216Z,25.00
2022-09-28T15:11:51.054Z,18.90
2022-09-28T15:12:53.539Z,25.22
2022-09-28T15:14:06.390Z,22.80
2022-09-28T15:15:17.955Z,26.40
2022-09-28T15:16:22.880Z,22.30
2022-09-28T15:17:28.488Z,17.10
2022-09-28T15:18:50.357Z,22.00
2022-09-28T15:20:25.242Z,23.90
2022-09-28T15:21:36.433Z,24.70
2022-09-28T15:22:42.502Z,26.90
2022-09-28T15:23:45.192Z,27.40
2022-09-28T15:25:02.002Z,24.45
2022-09-28T15:26:01.841Z,23.40
2022-09-28T15:27:16.186Z,23.50
2022-09-28T15:28:20.777Z,24.10
2022-09-28T15:29:23.730Z,26.80